Time;durP1;ratioP1;P1;durP2;ratioP2;P2;SDS_P1;SDS_P2;PMS_P1;PMS_P2;Temp;Humidity;BMP_temperature;BMP_pressure;BME280_temperature;BME280_humidity;BME280_pressure;Samples;Min_cycle;Max_cycle;Signal;HPM_P1;HPM_P2
2023/02/07 00:04:17;;;;;;;25.75;9.85;;;;;;;;;;10467854;28;20049;-79
2023/02/07 00:09:20;;;;;;;16.93;7.67;;;;;;;;;;10453767;28;20037;-78
2023/02/07 00:14:23;;;;;;;9.87;4.03;;;;;;;;;;10454351;28;20036;-79
2023/02/07 00:19:26;;;;;;;10.77;3.78;;;;;;;;;;10463299;28;20044;-78
2023/02/07 00:24:29;;;;;;;4.17;2.43;;;;;;;;;;10445688;28;20516;-78
2023/02/07 00:29:33;;;;;;;5.13;2.97;;;;;;;;;;10464174;28;20040;-79
2023/02/07 00:34:36;;;;;;;8.70;2.67;;;;;;;;;;10457894;28;20435;-79
2023/02/07 00:39:38;;;;;;;4.07;2.60;;;;;;;;;;10454378;28;20067;-79
2023/02/07 00:44:42;;;;;;;6.60;2.87;;;;;;;;;;10451850;28;20032;-78
2023/02/07 00:49:45;;;;;;;7.78;2.97;;;;;;;;;;10460452;28;20494;-79
2023/02/07 00:54:47;;;;;;;7.30;3.03;;;;;;;;;;10463821;28;20128;-78
2023/02/07 00:59:51;;;;;;;9.83;3.83;;;;;;;;;;10461528;28;20128;-78
2023/02/07 01:04:53;;;;;;;7.32;2.60;;;;;;;;;;10460583;28;20185;-77
2023/02/07 01:09:56;;;;;;;4.83;1.93;;;;;;;;;;10460002;28;20132;-77
2023/02/07 01:15:00;;;;;;;10.20;6.13;;;;;;;;;;10461293;28;20043;-79
2023/02/07 01:20:04;;;;;;;2.92;2.47;;;;;;;;;;10459529;28;20037;-78
2023/02/07 01:25:07;;;;;;;5.33;2.20;;;;;;;;;;10463875;28;20086;-79
2023/02/07 01:30:12;;;;;;;1.93;1.70;;;;;;;;;;10465696;28;20471;-77
2023/02/07 01:35:14;;;;;;;3.77;1.77;;;;;;;;;;10460197;28;20053;-78
2023/02/07 01:40:17;;;;;;;8.37;4.13;;;;;;;;;;10448295;28;20055;-80
2023/02/07 01:45:25;;;;;;;2.77;1.27;;;;;;;;;;10454361;28;20533;-80
2023/02/07 01:50:28;;;;;;;6.47;2.63;;;;;;;;;;10462603;28;20036;-78
2023/02/07 01:55:34;;;;;;;5.35;3.38;;;;;;;;;;10450917;28;20056;-77
2023/02/07 02:00:39;;;;;;;9.33;2.83;;;;;;;;;;10456483;28;20041;-77
2023/02/07 02:05:41;;;;;;;;;;;;;;;;;;10450640;28;20114;-77
2023/02/07 02:10:54;;;;;;;2.80;1.43;;;;;;;;;;10464039;28;19992;-77
2023/02/07 02:16:02;;;;;;;9.23;3.63;;;;;;;;;;10458372;28;20048;-77
2023/02/07 02:21:40;;;;;;;12.17;4.27;;;;;;;;;;10456234;28;20402;-78
2023/02/07 02:27:05;;;;;;;6.17;2.47;;;;;;;;;;10456497;28;20399;-79
2023/02/07 02:32:49;;;;;;;4.80;2.43;;;;;;;;;;10447605;28;20055;-80
2023/02/07 02:38:16;;;;;;;2.43;1.17;;;;;;;;;;10464682;28;20420;-78
2023/02/07 02:43:42;;;;;;;7.47;3.47;;;;;;;;;;10461552;28;20128;-78
2023/02/07 02:49:07;;;;;;;5.93;3.47;;;;;;;;;;10473396;28;20050;-76
2023/02/07 02:54:32;;;;;;;9.43;4.03;;;;;;;;;;10464457;28;20421;-76
2023/02/07 03:00:05;;;;;;;13.43;4.77;;;;;;;;;;10464248;28;20053;-78
2023/02/07 03:05:36;;;;;;;16.53;5.93;;;;;;;;;;10462584;28;20139;-78
2023/02/07 03:11:05;;;;;;;10.90;4.60;;;;;;;;;;10465533;28;20124;-77
2023/02/07 03:16:31;;;;;;;7.87;3.67;;;;;;;;;;10462355;28;20098;-78
2023/02/07 03:21:55;;;;;;;5.43;2.27;;;;;;;;;;10456169;28;20057;-78
2023/02/07 03:27:20;;;;;;;6.45;3.30;;;;;;;;;;10453961;28;20064;-79
2023/02/07 03:32:44;;;;;;;7.80;3.50;;;;;;;;;;10459918;28;20123;-79
2023/02/07 03:38:08;;;;;;;8.45;3.95;;;;;;;;;;10476476;28;20057;-79
2023/02/07 03:43:33;;;;;;;4.17;1.30;;;;;;;;;;10461344;28;20048;-78
2023/02/07 03:48:55;;;;;;;11.90;5.17;;;;;;;;;;10467261;28;20407;-77
2023/02/07 03:54:18;;;;;;;1.47;0.80;;;;;;;;;;10463605;28;20158;-79
2023/02/07 03:59:42;;;;;;;5.03;2.20;;;;;;;;;;10453045;28;20069;-78
2023/02/07 04:05:05;;;;;;;2.92;2.08;;;;;;;;;;10458227;28;20053;-80
2023/02/07 04:10:28;;;;;;;1.47;1.37;;;;;;;;;;10467665;28;20403;-77
2023/02/07 04:15:52;;;;;;;8.63;2.23;;;;;;;;;;10468646;28;20049;-78
2023/02/07 04:21:14;;;;;;;6.03;3.33;;;;;;;;;;10449480;28;20041;-78
2023/02/07 04:26:37;;;;;;;6.17;3.00;;;;;;;;;;10465475;28;20521;-78
2023/02/07 04:32:02;;;;;;;9.53;4.30;;;;;;;;;;10451428;28;20422;-78
2023/02/07 04:37:24;;;;;;;3.20;2.17;;;;;;;;;;10460339;28;20074;-77
2023/02/07 04:42:47;;;;;;;12.33;4.03;;;;;;;;;;10460188;28;20053;-78
2023/02/07 04:48:11;;;;;;;4.37;1.83;;;;;;;;;;10464536;28;20477;-77
2023/02/07 04:53:34;;;;;;;3.45;1.90;;;;;;;;;;10459471;28;20055;-77
2023/02/07 04:58:56;;;;;;;3.67;2.67;;;;;;;;;;10458925;28;20059;-77
2023/02/07 05:04:20;;;;;;;10.13;3.07;;;;;;;;;;10460612;28;20055;-77
2023/02/07 05:09:43;;;;;;;4.90;1.92;;;;;;;;;;10471771;28;20070;-77
2023/02/07 05:15:06;;;;;;;9.20;4.67;;;;;;;;;;10454721;28;20465;-78
2023/02/07 05:20:30;;;;;;;10.03;2.83;;;;;;;;;;10462977;28;20048;-76
2023/02/07 05:25:52;;;;;;;8.93;3.05;;;;;;;;;;10448063;28;20059;-77
2023/02/07 05:31:15;;;;;;;9.70;4.37;;;;;;;;;;10463404;28;20049;-78
2023/02/07 05:36:39;;;;;;;6.43;3.47;;;;;;;;;;10462172;28;20055;-77
2023/02/07 05:42:02;;;;;;;5.50;2.28;;;;;;;;;;10448809;28;20041;-78
2023/02/07 05:47:25;;;;;;;6.13;2.63;;;;;;;;;;10456245;28;20540;-79
2023/02/07 05:52:49;;;;;;;13.97;5.43;;;;;;;;;;10471017;28;20048;-79
2023/02/07 05:58:11;;;;;;;4.05;2.08;;;;;;;;;;10467757;28;20124;-79
2023/02/07 06:03:34;;;;;;;2.27;1.37;;;;;;;;;;10460771;28;20491;-78
2023/02/07 06:08:58;;;;;;;6.33;2.07;;;;;;;;;;10463372;28;20049;-79
2023/02/07 06:14:01;;;;;;;6.43;2.13;;;;;;;;;;10461601;28;20119;-79
2023/02/07 06:19:03;;;;;;;3.40;2.13;;;;;;;;;;10478390;28;20036;-78
2023/02/07 06:24:07;;;;;;;7.53;3.10;;;;;;;;;;10484535;28;20102;-77
2023/02/07 06:29:10;;;;;;;;;;;;;;;;;;10474548;28;20133;-79
2023/02/07 06:34:12;;;;;;;2.73;1.77;;;;;;;;;;10477411;28;20388;-78
2023/02/07 06:39:16;;;;;;;5.93;3.00;;;;;;;;;;10474747;28;20110;-78
2023/02/07 06:44:19;;;;;;;3.72;2.60;;;;;;;;;;10474914;28;20036;-78
2023/02/07 06:49:21;;;;;;;4.20;2.30;;;;;;;;;;10482753;28;20044;-78
2023/02/07 06:54:25;;;;;;;3.77;2.10;;;;;;;;;;10480279;28;20048;-77
2023/02/07 06:59:30;;;;;;;8.27;4.17;;;;;;;;;;10477111;28;20044;-78
2023/02/07 07:04:33;;;;;;;6.13;3.33;;;;;;;;;;10478859;28;20327;-79
2023/02/07 07:09:37;;;;;;;8.27;3.97;;;;;;;;;;10451060;28;20060;-79
2023/02/07 07:14:39;;;;;;;19.75;6.38;;;;;;;;;;10465761;28;20044;-81
2023/02/07 07:19:42;;;;;;;4.83;3.07;;;;;;;;;;10468708;28;20048;-77
2023/02/07 07:24:46;;;;;;;10.70;4.70;;;;;;;;;;10475432;28;20241;-85
2023/02/07 07:29:49;;;;;;;12.70;4.03;;;;;;;;;;10477457;28;20048;-78
2023/02/07 07:34:53;;;;;;;8.25;4.15;;;;;;;;;;10468084;28;20451;-78
2023/02/07 07:39:57;;;;;;;10.32;4.60;;;;;;;;;;10468782;28;20490;-79
2023/02/07 07:45:00;;;;;;;9.18;4.38;;;;;;;;;;10468706;28;20135;-81
2023/02/07 07:50:02;;;;;;;10.98;5.25;;;;;;;;;;10489836;28;20052;-80
2023/02/07 07:55:07;;;;;;;14.63;6.50;;;;;;;;;;10465059;28;20102;-79
2023/02/07 08:00:10;;;;;;;13.18;5.35;;;;;;;;;;10458674;28;20037;-80
2023/02/07 08:05:13;;;;;;;9.25;4.60;;;;;;;;;;10470110;28;20496;-79
2023/02/07 08:10:17;;;;;;;12.25;5.43;;;;;;;;;;10467859;28;20048;-80
2023/02/07 08:15:20;;;;;;;13.18;6.60;;;;;;;;;;10448566;28;20144;-79
2023/02/07 08:20:23;;;;;;;15.30;7.43;;;;;;;;;;10471298;28;20128;-79
2023/02/07 08:25:26;;;;;;;17.52;8.10;;;;;;;;;;10472081;28;20101;-79
2023/02/07 08:30:29;;;;;;;20.13;9.02;;;;;;;;;;10478983;28;20635;-81
2023/02/07 08:35:32;;;;;;;15.73;9.07;;;;;;;;;;10469432;28;20101;-80
2023/02/07 08:40:36;;;;;;;16.13;9.55;;;;;;;;;;10458093;28;20041;-80
2023/02/07 08:45:39;;;;;;;17.10;9.05;;;;;;;;;;10460229;28;20036;-78
2023/02/07 08:50:42;;;;;;;14.73;8.90;;;;;;;;;;10461637;28;20105;-81
2023/02/07 08:55:46;;;;;;;17.03;9.20;;;;;;;;;;10481994;28;20080;-80
2023/02/07 09:00:53;;;;;;;16.45;9.73;;;;;;;;;;10463864;28;20146;-81
2023/02/07 09:05:57;;;;;;;23.83;11.82;;;;;;;;;;10451489;28;20055;-79
2023/02/07 09:11:01;;;;;;;16.70;9.80;;;;;;;;;;10466057;28;20125;-79
2023/02/07 09:16:03;;;;;;;23.90;12.52;;;;;;;;;;10467232;28;20112;-80
2023/02/07 09:21:06;;;;;;;15.52;9.05;;;;;;;;;;10457205;28;20144;-80
2023/02/07 09:26:15;;;;;;;16.27;10.57;;;;;;;;;;10449635;28;20245;-79
2023/02/07 09:31:18;;;;;;;16.20;9.77;;;;;;;;;;10461806;28;20048;-79
2023/02/07 09:36:22;;;;;;;13.70;9.45;;;;;;;;;;10461814;28;20564;-82
2023/02/07 09:41:31;;;;;;;13.55;8.32;;;;;;;;;;10455406;28;20160;-80
2023/02/07 09:46:36;;;;;;;15.52;9.82;;;;;;;;;;10459842;28;20444;-79
2023/02/07 09:51:39;;;;;;;19.25;12.00;;;;;;;;;;10461162;28;20040;-81
2023/02/07 09:56:46;;;;;;;17.42;11.52;;;;;;;;;;10465363;28;20040;-80
2023/02/07 10:01:50;;;;;;;15.70;10.70;;;;;;;;;;10461879;28;20049;-80
2023/02/07 10:06:53;;;;;;;14.13;9.65;;;;;;;;;;10461811;28;20398;-79
2023/02/07 10:12:00;;;;;;;15.70;10.52;;;;;;;;;;10477141;28;20044;-79
2023/02/07 10:17:08;;;;;;;15.60;10.00;;;;;;;;;;10469731;28;20049;-81
2023/02/07 10:22:24;;;;;;;17.92;10.65;;;;;;;;;;10453411;28;20033;-80
2023/02/07 10:27:30;;;;;;;18.27;10.23;;;;;;;;;;10460568;28;20068;-80
2023/02/07 10:32:35;;;;;;;16.02;10.00;;;;;;;;;;10459583;28;20304;-80
2023/02/07 10:37:38;;;;;;;15.25;9.93;;;;;;;;;;10463303;28;20138;-80
2023/02/07 10:42:45;;;;;;;14.40;9.85;;;;;;;;;;10459510;28;20414;-80
2023/02/07 10:47:48;;;;;;;19.35;10.80;;;;;;;;;;10470440;28;20045;-80
2023/02/07 10:52:52;;;;;;;15.75;10.13;;;;;;;;;;10463021;28;20037;-81
2023/02/07 10:57:56;;;;;;;18.80;11.27;;;;;;;;;;10456681;28;20045;-80
2023/02/07 11:03:13;;;;;;;15.85;10.30;;;;;;;;;;10457284;28;20747;-80
2023/02/07 11:08:21;;;;;;;17.17;10.45;;;;;;;;;;10462767;28;20036;-80
2023/02/07 11:13:27;;;;;;;16.15;10.27;;;;;;;;;;10464234;28;20040;-80
2023/02/07 11:18:40;;;;;;;17.67;10.52;;;;;;;;;;10467790;28;20065;-79
2023/02/07 11:23:46;;;;;;;17.67;9.73;;;;;;;;;;10466453;28;20053;-80
2023/02/07 11:28:53;;;;;;;15.30;10.07;;;;;;;;;;10476188;28;20524;-79
2023/02/07 11:34:07;;;;;;;17.95;10.88;;;;;;;;;;10470492;28;20258;-79
2023/02/07 11:39:16;;;;;;;15.88;10.40;;;;;;;;;;10475467;28;20044;-80
2023/02/07 11:44:23;;;;;;;16.48;10.52;;;;;;;;;;10463182;28;20112;-80
2023/02/07 11:49:27;;;;;;;14.20;9.32;;;;;;;;;;10465280;28;20052;-80
2023/02/07 11:54:31;;;;;;;12.25;8.30;;;;;;;;;;10469083;28;20261;-79
2023/02/07 11:59:35;;;;;;;13.07;8.40;;;;;;;;;;10457461;28;20529;-80
2023/02/07 12:04:39;;;;;;;10.68;7.47;;;;;;;;;;10461730;28;20999;-80
2023/02/07 12:09:44;;;;;;;11.73;7.35;;;;;;;;;;10458660;28;20040;-79
2023/02/07 12:14:51;;;;;;;10.15;6.20;;;;;;;;;;10472468;28;20045;-80
2023/02/07 12:19:56;;;;;;;10.50;6.80;;;;;;;;;;10466029;28;20540;-80
2023/02/07 12:25:02;;;;;;;15.05;6.65;;;;;;;;;;10461813;28;20102;-80
2023/02/07 12:30:13;;;;;;;11.52;7.15;;;;;;;;;;10474182;28;20427;-80
2023/02/07 12:35:19;;;;;;;10.10;6.80;;;;;;;;;;10475195;28;20253;-80
2023/02/07 12:40:27;;;;;;;9.88;6.63;;;;;;;;;;10467796;28;20135;-80
2023/02/07 12:45:45;;;;;;;12.02;6.28;;;;;;;;;;10464224;28;20052;-81
2023/02/07 12:51:09;;;;;;;9.63;6.20;;;;;;;;;;10459491;28;20215;-79
2023/02/07 12:56:11;;;;;;;;;;;;;;;;;;10457924;28;20045;-80
2023/02/07 13:01:20;;;;;;;14.55;7.35;;;;;;;;;;10462323;28;19929;-81
2023/02/07 13:06:26;;;;;;;11.02;4.72;;;;;;;;;;10462233;28;20036;-81
2023/02/07 13:11:36;;;;;;;11.02;6.07;;;;;;;;;;10465624;28;20040;-79
2023/02/07 13:16:43;;;;;;;9.77;5.38;;;;;;;;;;10459967;28;20043;-80
2023/02/07 13:21:48;;;;;;;10.07;5.88;;;;;;;;;;10467602;28;20468;-80
2023/02/07 13:26:53;;;;;;;13.30;7.00;;;;;;;;;;10460230;28;20056;-79
2023/02/07 13:31:59;;;;;;;14.63;7.30;;;;;;;;;;10456847;28;20040;-81
2023/02/07 13:37:03;;;;;;;10.52;6.53;;;;;;;;;;10459653;28;20044;-81
2023/02/07 13:42:21;;;;;;;13.98;6.95;;;;;;;;;;10460771;28;20136;-81
2023/02/07 13:47:28;;;;;;;10.93;6.68;;;;;;;;;;10444368;28;20036;-80
2023/02/07 13:52:34;;;;;;;11.00;5.70;;;;;;;;;;10459932;28;20062;-78
2023/02/07 14:03:03;;;;;;;15.88;6.43;;;;;;;;;;10454208;28;20044;-80
2023/02/07 14:08:21;;;;;;;15.70;6.30;;;;;;;;;;10458909;28;20041;-81
2023/02/07 14:13:32;;;;;;;11.40;6.30;;;;;;;;;;10460880;28;20051;-80
2023/02/07 14:18:40;;;;;;;15.23;6.40;;;;;;;;;;10455062;28;20048;-80
2023/02/07 14:23:58;;;;;;;13.00;6.68;;;;;;;;;;10448415;28;20049;-80
2023/02/07 14:29:17;;;;;;;15.20;6.85;;;;;;;;;;10457389;28;20335;-80
2023/02/07 14:34:20;;;;;;;15.60;6.88;;;;;;;;;;10460451;28;20494;-81
2023/02/07 14:39:30;;;;;;;14.70;6.47;;;;;;;;;;10468427;28;20048;-80
2023/02/07 14:44:34;;;;;;;16.45;6.70;;;;;;;;;;10461380;28;20137;-80
2023/02/07 14:49:37;;;;;;;;;;;;;;;;;;10471019;28;20055;-79
2023/02/07 14:54:44;;;;;;;13.02;6.13;;;;;;;;;;10468867;28;19928;-79
2023/02/07 14:59:50;;;;;;;12.15;5.10;;;;;;;;;;10459079;28;20378;-80
2023/02/07 15:04:53;;;;;;;13.88;4.78;;;;;;;;;;10464633;28;20063;-81
2023/02/07 15:09:57;;;;;;;10.73;4.25;;;;;;;;;;10467115;28;20071;-82
2023/02/07 15:15:00;;;;;;;10.13;4.18;;;;;;;;;;10462685;28;20037;-79
2023/02/07 15:20:02;;;;;;;7.90;3.08;;;;;;;;;;10466845;28;20080;-80
2023/02/07 15:25:12;;;;;;;15.38;5.28;;;;;;;;;;10463288;28;20444;-80
2023/02/07 15:30:18;;;;;;;18.80;7.13;;;;;;;;;;10456381;28;20045;-80
2023/02/07 15:35:22;;;;;;;10.93;4.50;;;;;;;;;;10464246;28;20478;-80
2023/02/07 15:40:26;;;;;;;19.45;5.50;;;;;;;;;;10464044;28;20457;-79
2023/02/07 15:45:29;;;;;;;18.90;6.00;;;;;;;;;;10461683;28;20047;-81
2023/02/07 15:50:32;;;;;;;10.03;4.10;;;;;;;;;;10459928;28;20051;-78
2023/02/07 15:55:37;;;;;;;20.93;5.30;;;;;;;;;;10464984;28;20387;-79
2023/02/07 16:00:41;;;;;;;22.50;7.03;;;;;;;;;;10446272;28;20051;-79
2023/02/07 16:05:43;;;;;;;20.07;5.87;;;;;;;;;;10445659;28;20051;-79
2023/02/07 16:11:15;;;;;;;8.87;2.80;;;;;;;;;;10452629;28;20036;-80
2023/02/07 16:16:39;;;;;;;16.47;5.23;;;;;;;;;;10457593;28;20067;-80
2023/02/07 16:21:43;;;;;;;8.55;3.05;;;;;;;;;;10457534;28;20055;-80
2023/02/07 16:26:48;;;;;;;14.70;5.30;;;;;;;;;;10465886;28;20045;-80
2023/02/07 16:31:51;;;;;;;18.37;5.80;;;;;;;;;;10459587;28;20052;-78
2023/02/07 16:36:54;;;;;;;14.80;5.20;;;;;;;;;;10455473;28;20132;-79
2023/02/07 16:42:08;;;;;;;12.60;4.53;;;;;;;;;;10467145;28;20656;-80
2023/02/07 16:47:12;;;;;;;13.90;4.88;;;;;;;;;;10455909;28;20044;-78
2023/02/07 16:52:15;;;;;;;11.25;3.95;;;;;;;;;;10458745;28;20307;-79
2023/02/07 16:57:18;;;;;;;10.77;3.97;;;;;;;;;;10459762;28;20055;-79
2023/02/07 17:02:21;;;;;;;7.85;2.97;;;;;;;;;;10456847;28;20049;-79
2023/02/07 17:07:23;;;;;;;7.80;3.13;;;;;;;;;;10461434;28;20406;-79
2023/02/07 17:12:27;;;;;;;12.60;3.77;;;;;;;;;;10458633;28;20387;-79
2023/02/07 17:17:30;;;;;;;12.73;5.15;;;;;;;;;;10455814;28;20041;-81
2023/02/07 17:22:32;;;;;;;11.40;3.63;;;;;;;;;;10463387;28;20049;-79
2023/02/07 17:27:37;;;;;;;17.33;5.53;;;;;;;;;;10472249;28;20036;-79
2023/02/07 17:32:39;;;;;;;8.75;3.63;;;;;;;;;;10454573;28;20040;-79
2023/02/07 17:37:42;;;;;;;13.07;3.90;;;;;;;;;;10451077;28;20052;-79
2023/02/07 17:42:45;;;;;;;5.27;2.10;;;;;;;;;;10462125;28;20037;-79
2023/02/07 17:47:48;;;;;;;11.05;3.20;;;;;;;;;;10451164;28;20037;-77
2023/02/07 17:52:51;;;;;;;6.83;2.47;;;;;;;;;;10468041;28;20109;-77
2023/02/07 17:57:57;;;;;;;8.40;2.40;;;;;;;;;;10458124;28;20044;-80
2023/02/07 18:03:00;;;;;;;2.63;1.50;;;;;;;;;;10454931;28;20418;-78
2023/02/07 18:08:02;;;;;;;16.03;5.37;;;;;;;;;;10464022;28;20052;-79
2023/02/07 18:13:06;;;;;;;5.33;2.87;;;;;;;;;;10454182;28;20041;-79
2023/02/07 18:18:12;;;;;;;12.03;3.90;;;;;;;;;;10449319;28;20075;-78
2023/02/07 18:23:15;;;;;;;11.87;4.37;;;;;;;;;;10456165;28;20041;-78
2023/02/07 18:28:18;;;;;;;12.60;4.37;;;;;;;;;;10447401;28;20043;-78
2023/02/07 18:33:21;;;;;;;9.52;3.17;;;;;;;;;;10447530;28;20037;-78
2023/02/07 18:38:23;;;;;;;13.97;4.23;;;;;;;;;;10449999;28;20478;-79
2023/02/07 18:43:28;;;;;;;18.23;4.97;;;;;;;;;;10455943;28;20132;-77
2023/02/07 18:48:30;;;;;;;12.20;4.45;;;;;;;;;;10456842;28;20036;-77
2023/02/07 18:53:33;;;;;;;11.97;3.77;;;;;;;;;;10458405;28;20047;-80
2023/02/07 18:58:37;;;;;;;15.27;5.07;;;;;;;;;;10477707;28;20044;-80
2023/02/07 19:03:40;;;;;;;10.40;3.88;;;;;;;;;;10469334;28;20045;-83
2023/02/07 19:08:42;;;;;;;11.20;3.80;;;;;;;;;;10463239;28;20044;-76
2023/02/07 19:13:47;;;;;;;8.10;3.43;;;;;;;;;;10456990;28;20568;-77
2023/02/07 19:18:49;;;;;;;10.70;2.85;;;;;;;;;;10451961;28;20514;-77
2023/02/07 19:23:52;;;;;;;9.87;2.80;;;;;;;;;;10455756;28;20094;-78
2023/02/07 19:28:57;;;;;;;12.47;3.80;;;;;;;;;;10463191;28;20451;-78
2023/02/07 19:34:00;;;;;;;5.80;2.93;;;;;;;;;;10445739;28;20075;-78
2023/02/07 19:39:04;;;;;;;10.07;3.83;;;;;;;;;;10469125;28;20519;-77
2023/02/07 19:44:09;;;;;;;5.55;2.75;;;;;;;;;;10458657;28;20052;-77
2023/02/07 19:49:12;;;;;;;10.33;4.60;;;;;;;;;;10466809;28;20454;-76
2023/02/07 19:54:14;;;;;;;11.00;3.27;;;;;;;;;;10466154;28;20044;-76
2023/02/07 19:59:21;;;;;;;12.50;3.50;;;;;;;;;;10476677;28;20042;-76
2023/02/07 20:04:24;;;;;;;9.05;2.63;;;;;;;;;;10478685;28;20379;-77
2023/02/07 20:09:26;;;;;;;8.83;3.30;;;;;;;;;;10469225;28;20067;-77
2023/02/07 20:14:31;;;;;;;5.73;3.03;;;;;;;;;;10458677;28;20068;-78
2023/02/07 20:19:33;;;;;;;;;;;;;;;;;;10467048;28;20041;-78
2023/02/07 20:24:36;;;;;;;10.53;3.93;;;;;;;;;;10460604;28;19924;-78
2023/02/07 20:29:40;;;;;;;6.80;3.03;;;;;;;;;;10463166;28;20048;-78
2023/02/07 20:34:43;;;;;;;13.57;5.53;;;;;;;;;;10460037;28;20125;-79
2023/02/07 20:39:45;;;;;;;11.13;4.20;;;;;;;;;;10457239;28;20059;-78
2023/02/07 20:44:49;;;;;;;12.43;3.23;;;;;;;;;;10456085;28;20419;-78
2023/02/07 20:49:52;;;;;;;11.88;3.65;;;;;;;;;;10460065;28;20039;-78
2023/02/07 20:54:55;;;;;;;12.57;4.47;;;;;;;;;;10457151;28;20438;-79
2023/02/07 20:59:59;;;;;;;20.70;6.17;;;;;;;;;;10455446;28;20036;-80
2023/02/07 21:05:02;;;;;;;8.70;3.83;;;;;;;;;;10464215;28;20120;-80
2023/02/07 21:10:05;;;;;;;17.80;4.83;;;;;;;;;;10454346;28;20055;-81
2023/02/07 21:15:09;;;;;;;9.33;3.90;;;;;;;;;;10462876;28;20520;-80
2023/02/07 21:20:12;;;;;;;;;;;;;;;;;;10460590;28;20039;-80
2023/02/07 21:25:15;;;;;;;6.63;2.30;;;;;;;;;;10460345;28;19921;-81
2023/02/07 21:30:19;;;;;;;11.63;3.90;;;;;;;;;;10466700;28;20037;-81
2023/02/07 21:35:21;;;;;;;9.73;4.32;;;;;;;;;;10453747;28;20041;-79
2023/02/07 21:40:24;;;;;;;6.20;3.00;;;;;;;;;;10458543;28;20267;-80
2023/02/07 21:45:28;;;;;;;9.60;4.27;;;;;;;;;;10453555;28;20043;-78
2023/02/07 21:50:31;;;;;;;11.25;4.82;;;;;;;;;;10456317;28;20031;-80
2023/02/07 21:55:34;;;;;;;2.30;1.50;;;;;;;;;;10459341;28;20490;-79
2023/02/07 22:00:38;;;;;;;11.60;4.20;;;;;;;;;;10465005;28;20127;-79
2023/02/07 22:05:40;;;;;;;;;;;;;;;;;;10464258;28;20072;-80
2023/02/07 22:10:43;;;;;;;5.80;1.47;;;;;;;;;;10464966;28;19927;-79
2023/02/07 22:15:49;;;;;;;14.13;3.97;;;;;;;;;;10461130;28;20787;-83
2023/02/07 22:20:52;;;;;;;9.93;3.33;;;;;;;;;;10469092;28;20036;-82
2023/02/07 22:25:55;;;;;;;3.30;2.13;;;;;;;;;;10454780;28;20052;-78
2023/02/07 22:30:59;;;;;;;5.07;2.97;;;;;;;;;;10458885;28;20037;-78
2023/02/07 22:36:02;;;;;;;3.20;1.38;;;;;;;;;;10458479;28;21044;-78
2023/02/07 22:41:04;;;;;;;2.27;1.60;;;;;;;;;;10457133;28;20182;-80
2023/02/07 22:46:11;;;;;;;4.83;2.60;;;;;;;;;;10464197;28;20041;-77
2023/02/07 22:51:18;;;;;;;8.07;3.00;;;;;;;;;;10458962;28;20079;-78
2023/02/07 22:56:20;;;;;;;7.37;2.47;;;;;;;;;;10460932;28;20504;-79
2023/02/07 23:01:25;;;;;;;5.97;1.57;;;;;;;;;;10460101;28;20083;-79
2023/02/07 23:06:31;;;;;;;8.97;1.83;;;;;;;;;;10460712;28;20036;-80
2023/02/07 23:11:34;;;;;;;5.97;1.57;;;;;;;;;;10464363;28;20039;-79
2023/02/07 23:16:38;;;;;;;9.60;2.97;;;;;;;;;;10464331;28;20065;-79
2023/02/07 23:21:42;;;;;;;9.97;3.57;;;;;;;;;;10461824;28;20098;-78
2023/02/07 23:26:44;;;;;;;4.50;1.97;;;;;;;;;;10455781;28;20526;-78
2023/02/07 23:31:48;;;;;;;11.63;3.10;;;;;;;;;;10461194;28;20048;-79
2023/02/07 23:36:51;;;;;;;6.50;2.88;;;;;;;;;;10458252;28;20111;-79
2023/02/07 23:41:56;;;;;;;5.23;0.97;;;;;;;;;;10467016;28;20527;-80
2023/02/07 23:47:00;;;;;;;2.97;1.90;;;;;;;;;;10463278;28;20057;-79
2023/02/07 23:52:03;;;;;;;7.88;2.60;;;;;;;;;;10459873;28;20091;-79
2023/02/07 23:57:05;;;;;;;4.57;2.20;;;;;;;;;;10465309;28;20137;-79
